Time;durP1;ratioP1;P1;durP2;ratioP2;P2;SDS_P1;SDS_P2;PMS_P1;PMS_P2;Temp;Humidity;BMP_temperature;BMP_pressure;BME280_temperature;BME280_humidity;BME280_pressure;Samples;Min_cycle;Max_cycle;Signal;HPM_P1;HPM_P2
2023/08/22 00:01:57;;;;;;;2.83;1.17;;;24.30;64.00;;;;;;5053391;28;20202;-59
2023/08/22 00:04:22;;;;;;;1.25;0.90;;;24.30;64.00;;;;;;5052475;28;20523;-59
2023/08/22 00:06:48;;;;;;;1.45;1.08;;;24.30;64.00;;;;;;5053282;28;20630;-58
2023/08/22 00:09:14;;;;;;;1.00;1.00;;;24.30;64.00;;;;;;5052791;28;20198;-58
2023/08/22 00:11:39;;;;;;;1.05;1.05;;;24.30;64.00;;;;;;5052316;28;20175;-59
2023/08/22 00:14:06;;;;;;;1.73;0.98;;;24.30;64.00;;;;;;5052669;28;20182;-58
2023/08/22 00:16:34;;;;;;;1.30;1.15;;;24.30;64.00;;;;;;5053061;28;20175;-59
2023/08/22 00:19:00;;;;;;;1.60;1.00;;;24.30;64.00;;;;;;5051845;28;20534;-58
2023/08/22 00:21:25;;;;;;;1.13;1.00;;;24.30;64.00;;;;;;5052731;28;20178;-59
2023/08/22 00:23:51;;;;;;;0.90;0.90;;;24.30;64.10;;;;;;5052252;28;20298;-58
2023/08/22 00:26:16;;;;;;;1.42;1.15;;;24.30;64.10;;;;;;5052510;28;20173;-58
2023/08/22 00:28:42;;;;;;;1.10;1.00;;;24.30;64.10;;;;;;5052601;28;20203;-58
2023/08/22 00:31:07;;;;;;;1.50;1.10;;;24.30;64.10;;;;;;5051635;28;20213;-57
2023/08/22 00:33:33;;;;;;;1.80;1.15;;;24.30;64.00;;;;;;5052677;28;20224;-59
2023/08/22 00:35:58;;;;;;;1.33;1.10;;;24.30;64.10;;;;;;5052396;28;20175;-58
2023/08/22 00:38:24;;;;;;;1.67;1.02;;;24.30;64.10;;;;;;5052038;28;20217;-58
2023/08/22 00:40:50;;;;;;;2.20;1.20;;;24.30;64.10;;;;;;5052595;28;20167;-58
2023/08/22 00:43:15;;;;;;;1.10;1.00;;;24.30;64.00;;;;;;5052086;28;20293;-58
2023/08/22 00:45:41;;;;;;;1.20;1.10;;;24.30;64.10;;;;;;5051690;28;20223;-58
2023/08/22 00:48:06;;;;;;;2.45;1.48;;;24.30;64.00;;;;;;5053631;28;20179;-58
2023/08/22 00:50:32;;;;;;;1.00;0.90;;;24.30;64.00;;;;;;5055626;28;20576;-58
2023/08/22 00:52:58;;;;;;;1.50;1.17;;;24.30;64.10;;;;;;5055946;28;20181;-58
2023/08/22 00:55:24;;;;;;;1.35;1.10;;;24.30;64.10;;;;;;5056585;28;20198;-57
2023/08/22 00:57:49;;;;;;;1.55;1.45;;;24.30;64.10;;;;;;5056674;28;20258;-58
2023/08/22 01:00:15;;;;;;;1.10;1.00;;;24.30;64.10;;;;;;5055817;28;20177;-58
2023/08/22 01:02:41;;;;;;;1.60;1.25;;;24.20;64.00;;;;;;5056342;28;20224;-58
2023/08/22 01:05:07;;;;;;;1.20;1.10;;;24.30;64.00;;;;;;5054852;28;20175;-58
2023/08/22 01:07:40;;;;;;;1.27;1.17;;;24.30;64.10;;;;;;5055915;28;20185;-58
2023/08/22 01:10:16;;;;;;;1.08;0.98;;;24.30;64.10;;;;;;5054808;28;20573;-58
2023/08/22 01:12:54;;;;;;;2.15;1.10;;;24.20;64.00;;;;;;5055439;28;20174;-58
2023/08/22 01:15:26;;;;;;;1.20;1.10;;;24.30;64.10;;;;;;5055347;28;20213;-58
2023/08/22 01:17:53;;;;;;;1.42;0.98;;;24.20;64.00;;;;;;5056266;28;20182;-58
2023/08/22 01:20:19;;;;;;;1.20;1.10;;;24.30;64.10;;;;;;5055170;28;20233;-58
2023/08/22 01:22:45;;;;;;;1.10;1.00;;;24.30;64.10;;;;;;5056152;28;20203;-58
2023/08/22 01:25:10;;;;;;;1.00;0.95;;;24.20;64.00;;;;;;5055694;28;20179;-58
2023/08/22 01:28:24;;;;;;;1.08;1.00;;;24.30;64.10;;;;;;5055543;28;20262;-58
2023/08/22 01:31:10;;;;;;;1.10;1.00;;;24.20;64.00;;;;;;5043880;28;20186;-58
2023/08/22 01:33:38;;;;;;;1.20;0.90;;;24.20;64.00;;;;;;5051868;28;20241;-58
2023/08/22 01:36:05;;;;;;;1.00;1.00;;;24.20;64.00;;;;;;5054048;28;20182;-57
2023/08/22 01:38:31;;;;;;;1.20;1.10;;;24.20;64.00;;;;;;5055929;28;20179;-58
2023/08/22 01:40:57;;;;;;;1.20;1.10;;;24.20;64.00;;;;;;5055902;28;20174;-58
2023/08/22 01:43:22;;;;;;;1.50;1.10;;;24.20;64.10;;;;;;5054576;28;20225;-58
2023/08/22 01:45:48;;;;;;;1.20;1.10;;;24.20;64.00;;;;;;5055528;28;20222;-58
2023/08/22 01:48:13;;;;;;;1.40;1.15;;;24.20;64.00;;;;;;5054925;28;20254;-57
2023/08/22 01:50:39;;;;;;;0.70;0.70;;;24.20;64.00;;;;;;5055594;28;20179;-58
2023/08/22 01:53:04;;;;;;;0.80;0.80;;;24.20;64.00;;;;;;5055179;28;20167;-57
2023/08/22 01:55:30;;;;;;;1.20;1.00;;;24.20;64.00;;;;;;5055164;28;20202;-57
2023/08/22 01:57:55;;;;;;;1.20;1.10;;;24.20;64.00;;;;;;5055593;28;20266;-57
2023/08/22 02:00:21;;;;;;;1.15;1.00;;;24.20;64.00;;;;;;5054369;28;20175;-58
2023/08/22 02:02:47;;;;;;;1.80;1.00;;;24.20;64.00;;;;;;5054862;28;20219;-58
2023/08/22 02:05:13;;;;;;;1.30;1.02;;;24.20;64.00;;;;;;5055230;28;20178;-58
2023/08/22 02:07:38;;;;;;;1.20;1.10;;;24.20;64.00;;;;;;5055539;28;20677;-58
2023/08/22 02:10:04;;;;;;;2.92;1.08;;;24.20;64.00;;;;;;5054154;28;20224;-57
2023/08/22 02:12:30;;;;;;;1.60;1.10;;;24.20;64.00;;;;;;5055268;28;20314;-58
2023/08/22 02:14:55;;;;;;;1.02;1.00;;;24.20;64.10;;;;;;5055034;28;20179;-57
2023/08/22 02:17:21;;;;;;;1.85;1.10;;;24.20;64.00;;;;;;5054008;28;20344;-57
2023/08/22 02:19:46;;;;;;;1.02;0.98;;;24.20;64.00;;;;;;5055153;28;20175;-58
2023/08/22 02:22:12;;;;;;;1.50;1.00;;;24.20;64.00;;;;;;5054697;28;20171;-57
2023/08/22 02:24:37;;;;;;;1.10;1.00;;;24.20;64.00;;;;;;5054464;28;20185;-58
2023/08/22 02:27:06;;;;;;;1.33;1.23;;;24.20;64.00;;;;;;5054867;28;20187;-56
2023/08/22 02:29:32;;;;;;;1.60;1.13;;;24.20;64.00;;;;;;5054872;28;20179;-58
2023/08/22 02:31:58;;;;;;;1.45;0.90;;;24.20;64.00;;;;;;5053966;28;20167;-58
2023/08/22 02:34:24;;;;;;;1.05;0.88;;;24.20;64.00;;;;;;5054910;28;20184;-58
2023/08/22 02:36:50;;;;;;;1.25;1.10;;;24.20;64.00;;;;;;5054904;28;20175;-59
2023/08/22 02:39:15;;;;;;;1.17;1.08;;;24.20;64.00;;;;;;5053795;28;20225;-58
2023/08/22 02:41:41;;;;;;;0.80;0.80;;;24.20;64.00;;;;;;5054731;28;20177;-59
2023/08/22 02:44:07;;;;;;;1.25;1.10;;;24.20;64.00;;;;;;5054115;28;20211;-58
2023/08/22 02:46:32;;;;;;;1.33;1.13;;;24.10;63.90;;;;;;5053832;28;20225;-58
2023/08/22 02:48:58;;;;;;;1.80;1.27;;;24.20;64.00;;;;;;5054441;28;20189;-58
2023/08/22 02:51:23;;;;;;;1.88;1.10;;;24.20;64.00;;;;;;5054651;28;20588;-58
2023/08/22 02:53:49;;;;;;;1.27;1.10;;;24.20;64.00;;;;;;5053734;28;20182;-58
2023/08/22 02:56:14;;;;;;;1.00;1.00;;;24.10;64.70;;;;;;5054176;28;20317;-58
2023/08/22 02:58:40;;;;;;;1.60;1.00;;;24.10;63.90;;;;;;5053683;28;20171;-58
2023/08/22 03:01:07;;;;;;;1.40;1.02;;;24.10;63.90;;;;;;5053975;28;20541;-59
2023/08/22 03:03:32;;;;;;;0.90;0.88;;;24.10;64.70;;;;;;5054379;28;20224;-58
2023/08/22 03:05:58;;;;;;;1.10;1.00;;;24.10;63.90;;;;;;5053776;28;20176;-58
2023/08/22 03:08:24;;;;;;;1.00;1.00;;;24.10;63.80;;;;;;5054025;28;20570;-58
2023/08/22 03:10:49;;;;;;;1.77;1.25;;;24.10;63.90;;;;;;5053098;28;20256;-58
2023/08/22 03:13:15;;;;;;;1.20;1.10;;;24.10;63.90;;;;;;5052963;28;20538;-58
2023/08/22 03:15:40;;;;;;;2.05;1.20;;;24.10;63.80;;;;;;5054259;28;20542;-58
2023/08/22 03:18:06;;;;;;;1.33;1.02;;;24.10;63.80;;;;;;5053966;28;20630;-58
2023/08/22 03:20:31;;;;;;;2.03;1.02;;;24.10;63.90;;;;;;5053317;28;20626;-58
2023/08/22 03:22:57;;;;;;;0.82;0.80;;;24.10;63.80;;;;;;5053904;28;20215;-58
2023/08/22 03:25:23;;;;;;;2.25;1.20;;;24.00;63.80;;;;;;5053828;28;20170;-58
2023/08/22 03:27:48;;;;;;;2.05;1.33;;;24.10;63.90;;;;;;5053091;28;20636;-58
2023/08/22 03:30:14;;;;;;;1.02;1.02;;;24.10;63.80;;;;;;5053730;28;20179;-58
2023/08/22 03:32:39;;;;;;;1.65;1.10;;;24.10;63.90;;;;;;5054145;28;20174;-58
2023/08/22 03:35:06;;;;;;;1.25;1.00;;;24.10;63.80;;;;;;5052800;28;20175;-58
2023/08/22 03:37:32;;;;;;;1.23;1.15;;;24.10;63.80;;;;;;5053793;28;20203;-58
2023/08/22 03:39:57;;;;;;;1.35;1.13;;;24.10;63.80;;;;;;5053778;28;20588;-58
2023/08/22 03:42:23;;;;;;;1.27;1.10;;;24.10;63.80;;;;;;5052639;28;21060;-58
2023/08/22 03:44:48;;;;;;;1.10;0.70;;;24.10;63.80;;;;;;5053319;28;20226;-58
2023/08/22 03:47:14;;;;;;;1.38;1.10;;;24.00;63.70;;;;;;5053243;28;20199;-58
2023/08/22 03:49:39;;;;;;;1.02;0.95;;;24.00;63.80;;;;;;5052938;28;20182;-58
2023/08/22 03:52:05;;;;;;;1.35;1.15;;;24.10;63.80;;;;;;5053133;28;20546;-58
2023/08/22 03:54:31;;;;;;;1.40;1.02;;;24.00;63.80;;;;;;5053223;28;20175;-58
2023/08/22 03:56:56;;;;;;;0.90;0.90;;;24.10;63.80;;;;;;5052593;28;20630;-58
2023/08/22 03:59:22;;;;;;;1.27;1.15;;;24.10;63.80;;;;;;5053280;28;20179;-58
2023/08/22 04:01:48;;;;;;;1.02;1.00;;;24.00;63.70;;;;;;5052720;28;20167;-58
2023/08/22 04:04:14;;;;;;;1.20;1.00;;;24.00;63.70;;;;;;5052850;28;20214;-57
2023/08/22 04:06:41;;;;;;;1.40;1.00;;;24.10;63.80;;;;;;5053003;28;20183;-58
2023/08/22 04:09:07;;;;;;;1.08;1.00;;;24.00;63.70;;;;;;5052045;28;20276;-57
2023/08/22 04:11:32;;;;;;;1.05;0.98;;;24.00;63.70;;;;;;5052945;28;20209;-58
2023/08/22 04:13:58;;;;;;;1.60;1.10;;;24.00;63.70;;;;;;5052968;28;20179;-58
2023/08/22 04:16:23;;;;;;;1.35;1.25;;;24.00;64.50;;;;;;5052307;28;20553;-57
2023/08/22 04:18:49;;;;;;;1.10;1.00;;;24.00;63.70;;;;;;5053057;28;20187;-57
2023/08/22 04:21:14;;;;;;;1.20;1.08;;;24.00;63.70;;;;;;5052554;28;20733;-58
2023/08/22 04:23:40;;;;;;;1.20;1.10;;;24.00;63.70;;;;;;5051705;28;20293;-58
2023/08/22 04:26:05;;;;;;;1.50;1.00;;;24.00;63.70;;;;;;5052605;28;20302;-57
2023/08/22 04:28:33;;;;;;;1.58;1.10;;;24.00;63.70;;;;;;5053069;28;20197;-57
2023/08/22 04:30:59;;;;;;;1.25;1.00;;;24.00;63.70;;;;;;5052096;28;20175;-58
2023/08/22 04:33:24;;;;;;;1.15;1.05;;;24.00;63.60;;;;;;5052769;28;20630;-60
2023/08/22 04:35:50;;;;;;;1.00;1.00;;;24.00;63.60;;;;;;5052880;28;20258;-58
2023/08/22 04:38:16;;;;;;;1.67;1.00;;;24.00;63.60;;;;;;5051514;28;20179;-58
2023/08/22 04:40:42;;;;;;;1.45;1.10;;;24.00;63.70;;;;;;5052548;28;20208;-58
2023/08/22 04:43:08;;;;;;;1.73;1.10;;;24.00;63.70;;;;;;5052151;28;20214;-58
2023/08/22 04:45:33;;;;;;;1.10;1.08;;;24.00;63.60;;;;;;5051895;28;20233;-58
2023/08/22 04:48:00;;;;;;;1.05;0.90;;;24.00;63.60;;;;;;5052401;28;20294;-58
2023/08/22 04:50:26;;;;;;;2.03;1.10;;;24.00;63.60;;;;;;5052522;28;20258;-58
2023/08/22 04:52:51;;;;;;;1.05;1.05;;;24.00;63.60;;;;;;5051821;28;20180;-58
2023/08/22 04:55:17;;;;;;;1.10;1.00;;;24.00;63.60;;;;;;5052284;28;20641;-58
2023/08/22 04:57:42;;;;;;;0.90;0.90;;;24.00;63.60;;;;;;5052403;28;20181;-59
2023/08/22 05:00:11;;;;;;;1.30;1.20;;;24.00;64.30;;;;;;5051420;28;20210;-58
2023/08/22 05:02:36;;;;;;;1.48;1.02;;;24.00;63.50;;;;;;5052460;28;20245;-58
2023/08/22 05:05:03;;;;;;;1.25;1.15;;;24.00;64.30;;;;;;5052198;28;20175;-58
2023/08/22 05:07:29;;;;;;;1.23;1.10;;;24.00;63.50;;;;;;5052319;28;20203;-59
2023/08/22 05:09:55;;;;;;;1.15;1.05;;;24.00;63.50;;;;;;5052269;28;20214;-58
2023/08/22 05:12:20;;;;;;;0.90;0.90;;;24.00;63.50;;;;;;5051311;28;20634;-58
2023/08/22 05:14:46;;;;;;;2.25;1.10;;;24.00;63.50;;;;;;5052478;28;20697;-58
2023/08/22 05:17:12;;;;;;;1.25;1.13;;;24.00;63.50;;;;;;5052078;28;20167;-58
2023/08/22 05:19:38;;;;;;;1.20;1.10;;;23.90;63.40;;;;;;5051615;28;20228;-58
2023/08/22 05:22:03;;;;;;;1.40;1.30;;;24.00;63.50;;;;;;5052136;28;20183;-58
2023/08/22 05:24:29;;;;;;;1.35;1.08;;;24.00;63.50;;;;;;5052218;28;20668;-58
2023/08/22 05:26:54;;;;;;;1.38;1.17;;;24.00;63.40;;;;;;5051476;28;20587;-58
2023/08/22 05:29:20;;;;;;;0.93;0.93;;;24.00;63.40;;;;;;5051800;28;20179;-58
2023/08/22 05:31:46;;;;;;;1.20;1.10;;;24.00;63.40;;;;;;5052363;28;20514;-59
2023/08/22 05:34:11;;;;;;;0.90;0.82;;;24.00;63.50;;;;;;5051968;28;20182;-57
2023/08/22 05:36:37;;;;;;;1.08;0.95;;;24.00;63.40;;;;;;5055937;28;20258;-60
2023/08/22 05:39:03;;;;;;;1.77;1.00;;;24.00;63.40;;;;;;5055632;28;20274;-60
2023/08/22 05:41:29;;;;;;;1.27;0.90;;;24.00;63.40;;;;;;5055400;28;20182;-60
2023/08/22 05:43:54;;;;;;;1.60;1.10;;;24.00;63.40;;;;;;5055927;28;20214;-60
2023/08/22 05:46:20;;;;;;;0.93;0.90;;;24.00;63.40;;;;;;5055425;28;20222;-60
2023/08/22 05:48:46;;;;;;;1.27;1.17;;;24.00;63.40;;;;;;5055081;28;20183;-60
2023/08/22 05:51:11;;;;;;;1.60;1.15;;;24.00;63.40;;;;;;5055409;28;20182;-60
2023/08/22 05:53:37;;;;;;;2.03;1.10;;;24.00;63.40;;;;;;5055547;28;20638;-59
2023/08/22 05:56:03;;;;;;;1.17;1.00;;;24.00;63.40;;;;;;5054796;28;20693;-59
2023/08/22 05:58:28;;;;;;;1.05;0.95;;;24.00;63.40;;;;;;5055568;28;20179;-59
2023/08/22 06:00:54;;;;;;;1.05;1.05;;;24.00;63.40;;;;;;5055516;28;20217;-59
2023/08/22 06:03:20;;;;;;;1.73;0.95;;;24.00;63.30;;;;;;5054355;28;20646;-59
2023/08/22 06:05:45;;;;;;;1.42;1.33;;;24.00;63.30;;;;;;5055450;28;20193;-58
2023/08/22 06:08:11;;;;;;;1.85;0.95;;;24.00;63.30;;;;;;5054788;28;20642;-59
2023/08/22 06:10:37;;;;;;;1.10;1.00;;;24.00;63.20;;;;;;5054772;28;20229;-59
2023/08/22 06:13:05;;;;;;;1.23;1.13;;;24.00;63.20;;;;;;5054949;28;20519;-59
2023/08/22 06:15:31;;;;;;;1.42;1.20;;;24.00;63.20;;;;;;5054521;28;20384;-59
2023/08/22 06:17:56;;;;;;;0.90;0.90;;;24.00;63.30;;;;;;5055002;28;20179;-59
2023/08/22 06:20:22;;;;;;;1.17;1.02;;;24.00;63.30;;;;;;5054847;28;20183;-59
2023/08/22 06:22:47;;;;;;;1.10;1.00;;;24.00;63.30;;;;;;5054186;28;20207;-59
2023/08/22 06:25:13;;;;;;;1.40;1.17;;;24.00;64.20;;;;;;5054979;28;20253;-59
2023/08/22 06:27:38;;;;;;;1.23;1.10;;;24.00;63.40;;;;;;5054905;28;20245;-59
2023/08/22 06:30:05;;;;;;;1.48;1.20;;;24.00;63.40;;;;;;5054014;28;20190;-58
2023/08/22 06:32:30;;;;;;;2.15;1.25;;;24.00;63.40;;;;;;5054774;28;20173;-57
2023/08/22 06:35:03;;;;;;;1.70;1.20;;;24.10;63.30;;;;;;5054876;28;20258;-60
2023/08/22 06:37:29;;;;;;;1.40;1.30;;;24.10;63.30;;;;;;5054179;28;20183;-59
2023/08/22 06:39:54;;;;;;;1.52;0.90;;;24.10;63.30;;;;;;5054972;28;20254;-59
2023/08/22 06:42:20;;;;;;;2.08;1.38;;;24.10;63.30;;;;;;5054508;28;20263;-59
2023/08/22 06:44:45;;;;;;;0.90;0.90;;;24.10;63.30;;;;;;5053545;28;20234;-60
2023/08/22 06:47:14;;;;;;;1.10;1.08;;;24.10;63.30;;;;;;5054355;28;20187;-59
2023/08/22 06:49:39;;;;;;;1.05;1.00;;;24.10;63.30;;;;;;5054369;28;20581;-58
2023/08/22 06:52:05;;;;;;;1.20;1.10;;;24.00;63.30;;;;;;5053385;28;20229;-58
2023/08/22 06:54:32;;;;;;;1.00;1.00;;;24.10;63.40;;;;;;5054612;28;20418;-58
2023/08/22 06:56:58;;;;;;;2.05;1.15;;;24.10;63.50;;;;;;5054153;28;20544;-58
2023/08/22 06:59:23;;;;;;;1.40;1.30;;;24.10;63.50;;;;;;5053756;28;20179;-57
2023/08/22 07:01:49;;;;;;;1.08;1.02;;;24.10;63.40;;;;;;5054484;28;20171;-58
2023/08/22 07:04:14;;;;;;;1.35;1.25;;;24.10;63.40;;;;;;5053983;28;20207;-58
2023/08/22 07:06:40;;;;;;;1.58;1.48;;;24.10;63.40;;;;;;5053656;28;20630;-59
2023/08/22 07:09:05;;;;;;;1.20;1.10;;;24.10;63.40;;;;;;5054087;28;20695;-58
2023/08/22 07:11:31;;;;;;;1.38;1.25;;;24.10;63.50;;;;;;5054190;28;20179;-58
2023/08/22 07:13:57;;;;;;;1.23;1.13;;;24.10;63.50;;;;;;5053453;28;20171;-58
2023/08/22 07:16:22;;;;;;;1.52;1.08;;;24.10;63.50;;;;;;5053718;28;20179;-58
2023/08/22 07:18:48;;;;;;;1.20;0.98;;;24.10;64.20;;;;;;5053172;28;20175;-58
2023/08/22 07:21:13;;;;;;;1.13;0.93;;;24.10;63.40;;;;;;5053624;28;20171;-58
2023/08/22 07:23:39;;;;;;;1.10;1.02;;;24.10;64.20;;;;;;5053799;28;20218;-58
2023/08/22 07:26:04;;;;;;;1.05;1.00;;;24.10;63.30;;;;;;5052816;28;20186;-57
2023/08/22 07:28:30;;;;;;;1.10;1.10;;;24.10;63.30;;;;;;5054053;28;20175;-57
2023/08/22 07:30:55;;;;;;;1.42;1.33;;;24.10;63.30;;;;;;5053797;28;20179;-58
2023/08/22 07:33:21;;;;;;;1.05;0.98;;;24.20;63.30;;;;;;5052810;28;20175;-58
2023/08/22 07:35:46;;;;;;;1.25;1.10;;;24.20;63.20;;;;;;5053641;28;20171;-58
2023/08/22 07:38:12;;;;;;;1.50;1.20;;;24.20;63.20;;;;;;5053245;28;20175;-58
2023/08/22 07:40:39;;;;;;;2.22;1.52;;;24.10;63.20;;;;;;5052868;28;20225;-58
2023/08/22 07:43:05;;;;;;;1.00;0.90;;;24.20;63.30;;;;;;5053257;28;20221;-58
2023/08/22 07:45:30;;;;;;;1.15;1.05;;;24.20;63.20;;;;;;5053441;28;20440;-59
2023/08/22 07:47:56;;;;;;;1.30;1.20;;;24.10;63.20;;;;;;5052926;28;20171;-59
2023/08/22 07:50:21;;;;;;;0.90;0.90;;;24.20;63.20;;;;;;5053074;28;20210;-58
2023/08/22 07:52:47;;;;;;;1.13;0.80;;;24.20;63.10;;;;;;5053650;28;20199;-58
2023/08/22 07:55:13;;;;;;;1.08;1.00;;;24.10;63.10;;;;;;5052515;28;20167;-58
2023/08/22 07:57:38;;;;;;;1.67;1.20;;;24.10;63.20;;;;;;5052882;28;20605;-58
2023/08/22 08:00:09;;;;;;;1.15;1.00;;;24.20;63.20;;;;;;5052974;28;20175;-58
2023/08/22 08:02:35;;;;;;;1.10;1.00;;;24.20;63.10;;;;;;5052405;28;20207;-58
2023/08/22 08:05:00;;;;;;;1.27;1.17;;;24.20;63.10;;;;;;5052917;28;20179;-59
2023/08/22 08:07:26;;;;;;;1.20;1.10;;;24.10;63.00;;;;;;5053264;28;20171;-59
2023/08/22 08:09:51;;;;;;;1.92;1.33;;;24.20;63.10;;;;;;5052763;28;20183;-58
2023/08/22 08:12:17;;;;;;;1.23;1.13;;;24.20;63.00;;;;;;5053052;28;20183;-58
2023/08/22 08:14:43;;;;;;;1.27;1.10;;;24.20;63.00;;;;;;5053184;28;20179;-58
2023/08/22 08:17:08;;;;;;;1.05;1.05;;;24.20;63.00;;;;;;5052121;28;20649;-57
2023/08/22 08:19:34;;;;;;;2.15;1.27;;;24.20;63.00;;;;;;5053118;28;20175;-57
2023/08/22 08:21:59;;;;;;;1.73;1.00;;;24.20;63.00;;;;;;5052173;28;20258;-58
2023/08/22 08:24:25;;;;;;;1.13;1.02;;;24.20;62.90;;;;;;5052326;28;20218;-58
2023/08/22 08:26:51;;;;;;;1.00;1.00;;;24.20;62.80;;;;;;5053101;28;20179;-58
2023/08/22 08:29:18;;;;;;;1.42;1.00;;;24.20;62.80;;;;;;5052302;28;20698;-58
2023/08/22 08:31:43;;;;;;;1.38;1.20;;;24.20;62.80;;;;;;5066614;28;20182;-57
2023/08/22 08:34:09;;;;;;;1.00;1.00;;;24.20;62.80;;;;;;5064426;28;20660;-57
2023/08/22 08:36:34;;;;;;;2.65;1.30;;;24.20;63.60;;;;;;5070634;28;20524;-59
2023/08/22 08:39:00;;;;;;;2.60;1.20;;;24.30;63.00;;;;;;5054646;28;20171;-58
2023/08/22 08:41:25;;;;;;;1.60;1.00;;;24.30;63.00;;;;;;5052076;28;20650;-58
2023/08/22 08:43:51;;;;;;;1.15;0.90;;;24.30;63.10;;;;;;5051883;28;20214;-58
2023/08/22 08:46:17;;;;;;;1.10;1.00;;;24.30;63.00;;;;;;5057577;28;20826;-57
2023/08/22 08:48:42;;;;;;;1.65;1.13;;;24.30;63.10;;;;;;5070899;28;20531;-57
2023/08/22 08:51:08;;;;;;;2.35;1.15;;;24.30;63.10;;;;;;5071551;28;20182;-58
2023/08/22 08:53:35;;;;;;;2.17;1.13;;;24.30;63.10;;;;;;5054749;28;20175;-57
2023/08/22 08:56:00;;;;;;;2.22;1.10;;;24.30;63.10;;;;;;5070689;28;20180;-58
2023/08/22 08:58:26;;;;;;;1.83;1.10;;;24.30;63.10;;;;;;5071440;28;20178;-58
2023/08/22 09:00:52;;;;;;;1.80;1.10;;;24.30;63.10;;;;;;5070696;28;20269;-58
2023/08/22 09:03:18;;;;;;;1.65;1.20;;;24.30;63.30;;;;;;5046335;28;20202;-59
2023/08/22 09:05:43;;;;;;;1.23;1.10;;;24.30;63.30;;;;;;5032829;28;20536;-59
2023/08/22 09:08:27;;;;;;;1.27;1.00;;;24.30;63.30;;;;;;5051677;28;20171;-58
2023/08/22 09:10:53;;;;;;;1.35;1.02;;;24.40;63.30;;;;;;5054452;28;20519;-59
2023/08/22 09:13:38;;;;;;;1.55;1.05;;;24.40;63.30;;;;;;5055017;28;20656;-59
2023/08/22 09:16:04;;;;;;;1.20;1.00;;;24.40;63.20;;;;;;5055780;28;20171;-58
2023/08/22 09:18:30;;;;;;;1.50;1.20;;;24.40;63.20;;;;;;5053767;28;20258;-58
2023/08/22 09:21:02;;;;;;;2.42;1.35;;;24.40;63.20;;;;;;5055702;28;20744;-58
2023/08/22 09:23:28;;;;;;;3.08;0.90;;;24.40;63.30;;;;;;5055382;28;20218;-58
2023/08/22 09:25:54;;;;;;;1.30;0.93;;;24.40;63.30;;;;;;5059569;28;20179;-56
2023/08/22 09:28:20;;;;;;;1.33;1.15;;;24.40;63.20;;;;;;5072377;28;20542;-57
2023/08/22 09:30:49;;;;;;;4.10;1.20;;;24.40;63.20;;;;;;5055885;28;20228;-57
2023/08/22 09:33:15;;;;;;;1.58;1.10;;;24.40;63.20;;;;;;5062608;28;20206;-57
2023/08/22 09:35:41;;;;;;;1.33;0.90;;;24.40;63.20;;;;;;5075745;28;20178;-58
2023/08/22 09:38:08;;;;;;;1.17;0.90;;;24.30;63.10;;;;;;5075359;28;20174;-58
2023/08/22 09:40:33;;;;;;;1.63;1.10;;;24.40;63.10;;;;;;5066165;28;20183;-57
2023/08/22 09:43:00;;;;;;;2.15;1.10;;;24.40;62.90;;;;;;5073201;28;20210;-58
2023/08/22 09:45:26;;;;;;;1.38;1.10;;;24.40;62.90;;;;;;5075149;28;20222;-58
2023/08/22 09:47:51;;;;;;;1.95;1.30;;;24.50;62.90;;;;;;5074673;28;20214;-58
2023/08/22 09:50:17;;;;;;;2.15;1.20;;;24.40;62.80;;;;;;5075006;28;20717;-58
2023/08/22 09:52:42;;;;;;;1.20;1.10;;;24.50;62.70;;;;;;5073833;28;20546;-57
2023/08/22 09:55:09;;;;;;;1.42;0.98;;;24.50;62.50;;;;;;5073997;28;20210;-58
2023/08/22 09:57:34;;;;;;;0.85;0.85;;;24.50;62.60;;;;;;5057319;28;20257;-58
2023/08/22 10:00:00;;;;;;;0.95;0.90;;;24.50;63.40;;;;;;5057104;28;20218;-58
2023/08/22 10:02:25;;;;;;;2.05;1.00;;;24.50;62.50;;;;;;5054005;28;20170;-58
2023/08/22 10:04:51;;;;;;;0.85;0.80;;;24.50;62.50;;;;;;5053866;28;20186;-58
2023/08/22 10:07:16;;;;;;;1.40;1.10;;;24.50;63.40;;;;;;5053241;28;20664;-58
2023/08/22 10:09:42;;;;;;;1.00;1.00;;;24.50;62.60;;;;;;5054172;28;20206;-58
2023/08/22 10:12:13;;;;;;;1.45;0.85;;;24.50;62.70;;;;;;5053036;28;20183;-58
2023/08/22 10:14:49;;;;;;;1.10;0.80;;;24.40;62.70;;;;;;5054091;28;20175;-58
2023/08/22 10:17:14;;;;;;;1.10;1.00;;;24.50;62.60;;;;;;5053247;28;20179;-57
2023/08/22 10:19:43;;;;;;;1.88;0.90;;;24.50;62.50;;;;;;5054194;28;20216;-57
2023/08/22 10:22:13;;;;;;;1.85;1.10;;;24.50;62.50;;;;;;5053594;28;20182;-58
2023/08/22 10:24:39;;;;;;;1.02;0.95;;;24.50;62.40;;;;;;5054714;28;20210;-59
2023/08/22 10:27:12;;;;;;;1.75;1.17;;;24.50;62.50;;;;;;5054444;28;20179;-58
2023/08/22 10:29:44;;;;;;;0.88;0.88;;;24.50;62.50;;;;;;5054197;28;20163;-58
2023/08/22 10:32:10;;;;;;;1.00;0.90;;;24.50;62.40;;;;;;5055698;28;20167;-58
2023/08/22 10:34:38;;;;;;;1.10;1.00;;;24.50;62.40;;;;;;5074447;28;20648;-58
2023/08/22 10:37:17;;;;;;;1.17;0.98;;;24.50;62.40;;;;;;5073325;28;20216;-58
2023/08/22 10:39:46;;;;;;;1.10;1.00;;;24.50;62.30;;;;;;5074483;28;20178;-59
2023/08/22 10:42:21;;;;;;;1.27;1.00;;;24.60;62.20;;;;;;5073907;28;20571;-58
2023/08/22 10:44:50;;;;;;;1.42;1.10;;;24.60;62.20;;;;;;5073125;28;20226;-59
2023/08/22 10:47:16;;;;;;;3.58;1.00;;;24.60;62.30;;;;;;5073757;28;20197;-59
2023/08/22 10:49:42;;;;;;;4.10;1.17;;;24.50;62.40;;;;;;5073876;28;20179;-59
2023/08/22 10:52:11;;;;;;;2.40;1.02;;;24.50;62.50;;;;;;5073489;28;20170;-58
2023/08/22 10:55:01;;;;;;;1.90;1.30;;;24.50;62.50;;;;;;5074106;28;20179;-58
2023/08/22 10:57:27;;;;;;;1.90;1.25;;;24.50;62.50;;;;;;5073090;28;20606;-58
2023/08/22 10:59:59;;;;;;;2.55;1.20;;;24.50;62.50;;;;;;5073859;28;20186;-59
2023/08/22 11:02:29;;;;;;;3.55;1.15;;;24.60;62.60;;;;;;5073684;28;20227;-60
2023/08/22 11:04:58;;;;;;;2.85;1.00;;;24.60;62.50;;;;;;5073422;28;20202;-60
2023/08/22 11:07:24;;;;;;;1.45;1.10;;;24.60;62.60;;;;;;5073748;28;20178;-59
2023/08/22 11:09:50;;;;;;;1.70;1.00;;;24.60;62.60;;;;;;5073781;28;20259;-59
2023/08/22 11:12:19;;;;;;;1.33;1.08;;;24.60;62.70;;;;;;5072610;28;20212;-59
2023/08/22 11:14:52;;;;;;;1.05;0.95;;;24.60;62.70;;;;;;5073682;28;20235;-59
2023/08/22 11:17:19;;;;;;;1.88;0.90;;;24.60;62.80;;;;;;5073407;28;20174;-59
2023/08/22 11:19:45;;;;;;;3.17;1.02;;;24.60;62.70;;;;;;5072842;28;20179;-59
2023/08/22 11:22:11;;;;;;;2.97;1.20;;;24.60;62.90;;;;;;5073295;28;20175;-59
2023/08/22 11:24:37;;;;;;;2.20;1.30;;;24.60;62.80;;;;;;5073171;28;20241;-59
2023/08/22 11:27:03;;;;;;;2.30;1.10;;;24.60;62.70;;;;;;5071086;28;20170;-58
2023/08/22 11:29:30;;;;;;;1.17;1.08;;;24.60;62.70;;;;;;5073565;28;20189;-59
2023/08/22 11:31:55;;;;;;;2.45;1.23;;;24.60;62.70;;;;;;5071983;28;20521;-59
2023/08/22 11:34:21;;;;;;;1.70;1.00;;;24.60;62.60;;;;;;5053493;28;20424;-59
2023/08/22 11:36:47;;;;;;;3.10;0.95;;;24.60;63.40;;;;;;5053162;28;20182;-59
2023/08/22 11:39:13;;;;;;;1.98;0.90;;;24.60;62.60;;;;;;5052115;28;20179;-59
2023/08/22 11:41:38;;;;;;;2.47;1.20;;;24.60;62.60;;;;;;5052960;28;20258;-59
2023/08/22 11:44:04;;;;;;;2.10;1.10;;;24.70;62.60;;;;;;5052845;28;20213;-59
2023/08/22 11:46:33;;;;;;;1.95;1.00;;;24.60;62.60;;;;;;5052179;28;20297;-59
2023/08/22 11:49:05;;;;;;;1.15;1.00;;;24.60;62.50;;;;;;5053061;28;20224;-59
2023/08/22 11:51:30;;;;;;;2.45;1.10;;;24.60;62.50;;;;;;5053045;28;20179;-59
2023/08/22 11:53:56;;;;;;;1.20;1.10;;;24.60;62.50;;;;;;5052125;28;20221;-59
2023/08/22 11:56:21;;;;;;;2.33;0.98;;;24.60;62.40;;;;;;5052719;28;20224;-58
2023/08/22 11:58:54;;;;;;;1.15;0.88;;;24.60;62.40;;;;;;5051465;28;20202;-59
2023/08/22 12:01:21;;;;;;;1.48;0.63;;;24.70;63.20;;;;;;5051950;28;20541;-59
2023/08/22 12:03:47;;;;;;;1.02;0.93;;;24.60;62.30;;;;;;5052636;28;20202;-59
2023/08/22 12:06:13;;;;;;;2.63;0.85;;;24.70;62.20;;;;;;5052467;28;20182;-60
2023/08/22 12:08:38;;;;;;;0.63;0.63;;;24.70;62.10;;;;;;5051943;28;20546;-59
2023/08/22 12:11:04;;;;;;;2.17;0.80;;;24.60;62.10;;;;;;5052536;28;20583;-59
2023/08/22 12:13:30;;;;;;;1.75;1.00;;;24.60;62.10;;;;;;5052741;28;20179;-59
2023/08/22 12:15:55;;;;;;;1.08;0.90;;;24.60;62.10;;;;;;5052000;28;20179;-59
2023/08/22 12:18:29;;;;;;;1.20;1.02;;;24.60;62.10;;;;;;5052322;28;20179;-59
2023/08/22 12:20:55;;;;;;;0.90;0.70;;;24.60;62.00;;;;;;5052431;28;20194;-60
2023/08/22 12:23:20;;;;;;;0.93;0.90;;;24.60;62.00;;;;;;5051751;28;20645;-59
2023/08/22 12:25:46;;;;;;;1.20;0.95;;;24.70;62.10;;;;;;5052671;28;20562;-59
2023/08/22 12:28:11;;;;;;;0.88;0.80;;;24.70;62.00;;;;;;5050463;28;20185;-59
2023/08/22 12:30:37;;;;;;;1.55;0.70;;;24.70;62.00;;;;;;5052746;28;20167;-59
2023/08/22 12:33:04;;;;;;;2.95;0.80;;;24.70;62.00;;;;;;5061058;28;20174;-59
2023/08/22 12:35:31;;;;;;;1.65;0.90;;;24.60;62.00;;;;;;5071826;28;20182;-59
2023/08/22 12:37:56;;;;;;;1.42;1.10;;;24.60;62.00;;;;;;5071201;28;20174;-59
2023/08/22 12:40:22;;;;;;;0.65;0.65;;;24.60;62.00;;;;;;5072135;28;20236;-59
2023/08/22 12:42:48;;;;;;;1.42;0.80;;;24.60;62.10;;;;;;5071396;28;20201;-59
2023/08/22 12:45:13;;;;;;;1.25;0.85;;;24.60;62.10;;;;;;5071880;28;20233;-59